createdAt,value
2018-10-11T00:00:16.468Z,98.9
2018-10-11T00:01:16.520Z,99.2
2018-10-11T00:02:16.801Z,99.2
2018-10-11T00:03:17.065Z,98.5
2018-10-11T00:04:16.322Z,98.4
2018-10-11T00:05:16.594Z,98.6
2018-10-11T00:06:16.862Z,98.5
2018-10-11T00:07:17.131Z,98.4
2018-10-11T00:08:16.399Z,98.6
2018-10-11T00:09:16.661Z,98.3
2018-10-11T00:10:16.932Z,98.4
2018-10-11T00:11:16.993Z,98.2
2018-10-11T00:12:16.264Z,98.2
2018-10-11T00:13:16.538Z,98.3
2018-10-11T00:14:16.822Z,98.3
2018-10-11T00:15:17.098Z,98.1
2018-10-11T00:16:16.365Z,98.3
2018-10-11T00:17:16.639Z,98.5
2018-10-11T00:18:16.908Z,98.5
2018-10-11T00:19:17.197Z,98.4
2018-10-11T00:20:16.487Z,98.5
2018-10-11T00:21:16.519Z,98.0
2018-10-11T00:22:16.780Z,98.0
2018-10-11T00:23:17.047Z,98.2
2018-10-11T00:24:16.325Z,98.3
2018-10-11T00:25:16.610Z,98.3
2018-10-11T00:26:16.883Z,98.2
2018-10-11T00:27:17.159Z,98.5
2018-10-11T00:28:16.436Z,98.7
2018-10-11T00:29:16.710Z,97.8
2018-10-11T00:30:16.993Z,97.9
2018-10-11T00:31:17.045Z,98.0
2018-10-11T00:32:16.314Z,97.9
2018-10-11T00:33:16.579Z,97.7
2018-10-11T00:34:16.850Z,97.9
2018-10-11T00:35:17.129Z,98.3
2018-10-11T00:36:16.406Z,98.3
2018-10-11T00:37:16.680Z,97.9
2018-10-11T00:38:16.950Z,97.7
2018-10-11T00:39:17.227Z,97.6
2018-10-11T00:40:16.529Z,97.7
2018-10-11T00:41:16.553Z,98.3
2018-10-11T00:42:16.858Z,97.8
2018-10-11T00:43:17.120Z,97.5
2018-10-11T00:44:16.394Z,97.7
2018-10-11T00:45:16.669Z,97.7
2018-10-11T00:46:16.937Z,96.9
2018-10-11T00:47:17.213Z,96.6
2018-10-11T00:48:16.493Z,96.3
2018-10-11T00:49:16.871Z,96.0
2018-10-11T00:50:17.157Z,96.1
2018-10-11T00:51:17.203Z,96.3
2018-10-11T00:52:16.489Z,96.2
2018-10-11T00:53:16.769Z,96.3
2018-10-11T00:54:17.047Z,96.6
2018-10-11T00:55:16.322Z,96.5
2018-10-11T00:56:16.606Z,95.5
2018-10-11T00:57:16.875Z,95.9
2018-10-11T00:58:17.146Z,96.0
2018-10-11T00:59:16.426Z,96.0
2018-10-11T01:00:16.720Z,95.7
2018-10-11T01:01:16.736Z,95.7
2018-10-11T01:02:17.003Z,95.2
2018-10-11T01:03:16.277Z,95.6
2018-10-11T01:04:16.546Z,95.5
2018-10-11T01:05:17.215Z,95.5
2018-10-11T01:06:16.488Z,95.0
2018-10-11T01:07:16.756Z,95.1
2018-10-11T01:08:17.025Z,95.2
2018-10-11T01:09:16.406Z,95.4
2018-10-11T01:10:16.780Z,96.0
2018-10-11T01:11:16.793Z,95.9
2018-10-11T01:12:17.069Z,95.3
2018-10-11T01:13:16.346Z,95.6
2018-10-11T01:14:16.621Z,95.7
2018-10-11T01:15:16.891Z,95.3
2018-10-11T01:16:17.164Z,95.9
2018-10-11T01:17:16.433Z,96.4
2018-10-11T01:18:16.706Z,96.0
2018-10-11T01:19:16.972Z,96.4
2018-10-11T01:20:17.255Z,96.8
2018-10-11T01:21:16.297Z,96.9
2018-10-11T01:22:16.575Z,97.0
2018-10-11T01:23:16.841Z,97.0
2018-10-11T01:24:17.653Z,96.9
2018-10-11T01:25:16.950Z,97.2
2018-10-11T01:26:17.214Z,97.0
2018-10-11T01:27:16.480Z,96.3
2018-10-11T01:28:16.770Z,95.4
2018-10-11T01:29:17.048Z,96.1
2018-10-11T01:30:16.327Z,96.9
2018-10-11T01:31:16.387Z,97.1
2018-10-11T01:32:16.669Z,96.7
2018-10-11T01:33:16.944Z,96.7
2018-10-11T01:34:17.217Z,96.1
2018-10-11T01:35:16.503Z,96.4
2018-10-11T01:36:16.770Z,96.5
2018-10-11T01:37:17.036Z,96.4
2018-10-11T01:38:16.312Z,96.0
2018-10-11T01:39:16.598Z,96.2
2018-10-11T01:40:16.876Z,96.5
2018-10-11T01:41:16.921Z,95.6
2018-10-11T01:42:17.193Z,95.0
2018-10-11T01:43:16.474Z,95.8
2018-10-11T01:44:16.748Z,96.3
2018-10-11T01:45:17.032Z,96.2
2018-10-11T01:46:16.321Z,96.3
2018-10-11T01:47:16.586Z,95.7
2018-10-11T01:48:16.851Z,95.8
2018-10-11T01:49:17.434Z,96.0
2018-10-11T01:50:16.713Z,96.2
2018-10-11T01:51:16.767Z,96.2
2018-10-11T01:52:17.044Z,95.5
2018-10-11T01:53:16.328Z,94.4
2018-10-11T01:54:16.596Z,94.6
2018-10-11T01:55:16.890Z,94.7
2018-10-11T01:56:17.159Z,95.4
2018-10-11T01:57:16.428Z,95.3
2018-10-11T01:58:16.702Z,95.3
2018-10-11T01:59:16.970Z,95.4
2018-10-11T02:00:17.255Z,94.4
2018-10-11T02:01:16.291Z,93.7
2018-10-11T02:02:16.563Z,93.5
2018-10-11T02:03:16.836Z,93.9
2018-10-11T02:04:17.412Z,94.3
2018-10-11T02:05:16.691Z,94.4
2018-10-11T02:06:16.961Z,94.6
2018-10-11T02:07:17.236Z,94.6
2018-10-11T02:08:16.512Z,95.1
2018-10-11T02:09:16.824Z,95.2
2018-10-11T02:10:17.125Z,95.4
2018-10-11T02:11:17.161Z,95.3
2018-10-11T02:12:16.442Z,94.0
2018-10-11T02:13:16.709Z,93.9
2018-10-11T02:14:16.986Z,94.4
2018-10-11T02:15:17.262Z,94.7
2018-10-11T02:16:16.529Z,95.3
2018-10-11T02:17:16.801Z,95.4
2018-10-11T02:18:17.400Z,95.1
2018-10-11T02:19:16.662Z,95.4
2018-10-11T02:20:16.943Z,95.3
2018-10-11T02:21:17.053Z,95.2
2018-10-11T02:22:16.319Z,94.6
2018-10-11T02:23:16.591Z,94.4
2018-10-11T02:24:16.871Z,94.7
2018-10-11T02:25:17.153Z,95.0
2018-10-11T02:26:16.421Z,93.6
2018-10-11T02:27:16.702Z,91.6
2018-10-11T02:28:16.962Z,92.9
2018-10-11T02:29:17.066Z,93.5
2018-10-11T02:30:16.366Z,90.8
2018-10-11T02:31:16.410Z,89.2
2018-10-11T02:32:16.690Z,89.9
2018-10-11T02:33:16.961Z,91.7
2018-10-11T02:34:17.504Z,91.4
2018-10-11T02:35:16.792Z,91.1
2018-10-11T02:36:17.059Z,90.6
2018-10-11T02:37:16.330Z,90.2
2018-10-11T02:38:16.605Z,90.0
2018-10-11T02:39:16.873Z,89.8
2018-10-11T02:40:17.155Z,88.1
2018-10-11T02:41:17.166Z,87.6
2018-10-11T02:42:16.446Z,88.5
2018-10-11T02:43:16.711Z,87.8
2018-10-11T02:44:16.987Z,87.7
2018-10-11T02:45:16.279Z,88.2
2018-10-11T02:46:16.574Z,88.3
2018-10-11T02:47:16.847Z,88.2
2018-10-11T02:48:17.119Z,89.3
2018-10-11T02:49:16.385Z,89.9
2018-10-11T02:50:16.665Z,90.5
2018-10-11T02:51:16.699Z,90.5
2018-10-11T02:52:16.965Z,90.1
2018-10-11T02:53:17.236Z,90.4
2018-10-11T02:54:16.498Z,90.3
2018-10-11T02:55:16.766Z,90.0
2018-10-11T02:56:17.032Z,90.2
2018-10-11T02:57:16.302Z,90.4
2018-10-11T02:58:16.571Z,90.6
2018-10-11T02:59:16.831Z,90.8
2018-10-11T03:00:17.121Z,90.9
2018-10-11T03:01:17.170Z,91.2
2018-10-11T03:02:16.437Z,91.3
2018-10-11T03:03:16.710Z,91.6
2018-10-11T03:04:16.972Z,92.1
2018-10-11T03:05:17.248Z,92.2
2018-10-11T03:06:16.518Z,92.3
2018-10-11T03:07:16.787Z,92.3
2018-10-11T03:08:17.059Z,92.5
2018-10-11T03:09:16.341Z,92.6
2018-10-11T03:10:16.658Z,92.6
2018-10-11T03:11:17.045Z,92.7
2018-10-11T03:12:16.317Z,91.5
2018-10-11T03:13:16.585Z,91.4
2018-10-11T03:14:16.863Z,92.1
2018-10-11T03:15:17.129Z,91.9
2018-10-11T03:16:16.413Z,91.9
2018-10-11T03:17:16.691Z,92.7
2018-10-11T03:18:16.964Z,92.4
2018-10-11T03:19:17.237Z,92.6
2018-10-11T03:20:16.508Z,93.0
2018-10-11T03:21:17.347Z,93.6
2018-10-11T03:22:16.631Z,93.6
2018-10-11T03:23:16.913Z,92.4
2018-10-11T03:24:17.253Z,92.9
2018-10-11T03:25:16.635Z,92.5
2018-10-11T03:26:16.912Z,91.6
2018-10-11T03:27:17.204Z,91.6
2018-10-11T03:28:16.461Z,91.8
2018-10-11T03:29:16.740Z,92.0
2018-10-11T03:30:17.023Z,92.2
2018-10-11T03:31:17.073Z,92.4
2018-10-11T03:32:16.347Z,92.5
2018-10-11T03:33:16.621Z,92.9
2018-10-11T03:34:16.891Z,92.8
2018-10-11T03:35:17.161Z,92.4
2018-10-11T03:36:16.433Z,92.6
2018-10-11T03:37:16.706Z,93.2
2018-10-11T03:38:16.979Z,93.3
2018-10-11T03:39:17.254Z,92.7
2018-10-11T03:40:16.532Z,93.4
2018-10-11T03:41:16.577Z,93.4
2018-10-11T03:42:16.844Z,93.4
2018-10-11T03:43:17.421Z,93.8
2018-10-11T03:44:16.685Z,94.0
2018-10-11T03:45:16.943Z,94.3
2018-10-11T03:46:17.241Z,94.3
2018-10-11T03:47:16.536Z,94.5
2018-10-11T03:48:16.817Z,94.6
2018-10-11T03:49:17.094Z,94.3
2018-10-11T03:50:16.384Z,94.4
2018-10-11T03:51:16.424Z,94.5
2018-10-11T03:52:16.687Z,93.6
2018-10-11T03:53:16.963Z,93.2
2018-10-11T03:54:17.231Z,93.1
2018-10-11T03:55:16.511Z,91.9
2018-10-11T03:56:16.782Z,91.8
2018-10-11T03:57:17.053Z,91.2
2018-10-11T03:58:16.322Z,91.1
2018-10-11T03:59:16.604Z,91.2
2018-10-11T04:00:16.880Z,90.5
2018-10-11T04:01:16.946Z,91.3
2018-10-11T04:02:17.210Z,91.9
2018-10-11T04:03:16.488Z,91.9
2018-10-11T04:04:16.746Z,91.2
2018-10-11T04:05:17.011Z,91.7
2018-10-11T04:06:16.280Z,90.9
2018-10-11T04:07:16.550Z,90.5
2018-10-11T04:08:16.816Z,90.0
2018-10-11T04:09:17.100Z,90.0
2018-10-11T04:10:16.380Z,89.7
2018-10-11T04:11:16.414Z,90.8
2018-10-11T04:12:16.680Z,91.0
2018-10-11T04:13:16.944Z,91.3
2018-10-11T04:14:17.221Z,90.3
2018-10-11T04:15:16.496Z,90.5
2018-10-11T04:16:16.774Z,90.8
2018-10-11T04:17:17.056Z,91.2
2018-10-11T04:18:16.324Z,91.7
2018-10-11T04:19:16.604Z,92.0
2018-10-11T04:20:17.149Z,90.9
2018-10-11T04:21:16.936Z,90.8
2018-10-11T04:22:17.209Z,91.3
2018-10-11T04:23:16.483Z,91.1
2018-10-11T04:24:16.770Z,90.1
2018-10-11T04:25:17.061Z,90.9
2018-10-11T04:26:16.345Z,91.0
2018-10-11T04:27:16.615Z,90.6
2018-10-11T04:28:16.886Z,91.0
2018-10-11T04:29:17.160Z,91.2
2018-10-11T04:30:16.454Z,91.0
2018-10-11T04:31:16.496Z,91.3
2018-10-11T04:32:16.759Z,92.0
2018-10-11T04:33:17.029Z,92.2
2018-10-11T04:34:16.296Z,92.4
2018-10-11T04:35:16.599Z,92.7
2018-10-11T04:36:17.156Z,92.8
2018-10-11T04:37:16.454Z,92.1
2018-10-11T04:38:16.725Z,91.4
2018-10-11T04:39:17.011Z,89.7
2018-10-11T04:40:16.308Z,89.9
2018-10-11T04:41:16.323Z,89.9
2018-10-11T04:42:16.597Z,89.5
2018-10-11T04:43:17.325Z,89.7
2018-10-11T04:44:16.771Z,89.9
2018-10-11T04:45:17.168Z,89.9
2018-10-11T04:46:16.442Z,90.2
2018-10-11T04:47:16.714Z,89.8
2018-10-11T04:48:16.973Z,89.7
2018-10-11T04:49:17.251Z,90.1
2018-10-11T04:50:16.526Z,90.4
2018-10-11T04:51:16.588Z,89.6
2018-10-11T04:52:16.852Z,89.6
2018-10-11T04:53:17.123Z,90.2
2018-10-11T04:54:16.410Z,90.3
2018-10-11T04:55:16.708Z,90.7
2018-10-11T04:56:16.981Z,90.3
2018-10-11T04:57:17.245Z,90.3
2018-10-11T04:58:16.521Z,90.2
2018-10-11T04:59:16.797Z,90.3
2018-10-11T05:00:17.398Z,90.6
2018-10-11T05:01:17.127Z,90.6
2018-10-11T05:02:16.395Z,90.8
2018-10-11T05:03:16.667Z,90.9
2018-10-11T05:04:16.940Z,91.5
2018-10-11T05:05:17.321Z,91.6
2018-10-11T05:06:16.644Z,91.3
2018-10-11T05:07:16.919Z,91.3
2018-10-11T05:08:17.192Z,91.4
2018-10-11T05:09:16.463Z,91.9
2018-10-11T05:10:16.739Z,91.5
2018-10-11T05:11:16.785Z,91.6
2018-10-11T05:12:17.064Z,91.8
2018-10-11T05:13:16.334Z,91.4
2018-10-11T05:14:16.607Z,91.5
2018-10-11T05:15:16.886Z,91.4
2018-10-11T05:16:17.158Z,91.0
2018-10-11T05:17:16.465Z,91.1
2018-10-11T05:18:16.752Z,91.4
2018-10-11T05:19:17.026Z,90.8
2018-10-11T05:20:16.300Z,90.7
2018-10-11T05:21:16.406Z,90.7
2018-10-11T05:22:16.685Z,91.4
2018-10-11T05:23:16.958Z,92.0
2018-10-11T05:24:17.229Z,92.4
2018-10-11T05:25:16.495Z,92.2
2018-10-11T05:26:17.082Z,92.4
2018-10-11T05:27:16.463Z,92.1
2018-10-11T05:28:16.727Z,92.1
2018-10-11T05:29:16.999Z,91.9
2018-10-11T05:30:16.285Z,92.1
2018-10-11T05:31:16.337Z,92.1
2018-10-11T05:32:16.777Z,92.4
2018-10-11T05:33:17.118Z,92.2
2018-10-11T05:34:16.397Z,92.1
2018-10-11T05:35:16.692Z,92.0
2018-10-11T05:36:16.984Z,92.0
2018-10-11T05:37:17.260Z,92.0
2018-10-11T05:38:16.671Z,92.1
2018-10-11T05:39:17.012Z,92.6
2018-10-11T05:40:16.286Z,92.9
2018-10-11T05:41:16.330Z,92.9
2018-10-11T05:42:16.597Z,92.6
2018-10-11T05:43:16.863Z,92.0
2018-10-11T05:44:17.236Z,92.0
2018-10-11T05:45:16.575Z,92.0
2018-10-11T05:46:16.836Z,92.0
2018-10-11T05:47:17.103Z,92.1
2018-10-11T05:48:16.361Z,92.5
2018-10-11T05:49:16.645Z,92.6
2018-10-11T05:50:17.062Z,92.4
2018-10-11T05:51:16.952Z,92.4
2018-10-11T05:52:17.231Z,92.3
2018-10-11T05:53:16.497Z,92.2
2018-10-11T05:54:16.772Z,92.7
2018-10-11T05:55:17.043Z,93.0
2018-10-11T05:56:16.317Z,93.1
2018-10-11T05:57:16.588Z,93.4
2018-10-11T05:58:16.865Z,93.7
2018-10-11T05:59:17.138Z,93.8
2018-10-11T06:00:16.415Z,94.0
2018-10-11T06:01:16.488Z,94.2
2018-10-11T06:02:16.753Z,94.1
2018-10-11T06:03:17.022Z,94.0
2018-10-11T06:04:16.475Z,94.0
2018-10-11T06:05:16.805Z,93.8
2018-10-11T06:06:17.076Z,93.6
2018-10-11T06:07:16.334Z,93.7
2018-10-11T06:08:16.607Z,94.1
2018-10-11T06:09:16.881Z,94.2
2018-10-11T06:10:17.177Z,94.2
2018-10-11T06:11:17.210Z,94.2
2018-10-11T06:12:16.488Z,94.1
2018-10-11T06:13:16.756Z,93.6
2018-10-11T06:14:17.032Z,93.3
2018-10-11T06:15:16.304Z,93.6
2018-10-11T06:16:16.574Z,93.5
2018-10-11T06:17:16.849Z,92.8
2018-10-11T06:18:17.112Z,92.1
2018-10-11T06:19:16.393Z,91.9
2018-10-11T06:20:16.669Z,91.8
2018-10-11T06:21:16.727Z,92.6
2018-10-11T06:22:17.016Z,92.8
2018-10-11T06:23:16.287Z,92.9
2018-10-11T06:24:16.564Z,93.1
2018-10-11T06:25:16.827Z,92.0
2018-10-11T06:26:17.104Z,91.9
2018-10-11T06:27:16.392Z,91.7
2018-10-11T06:28:16.671Z,91.2
2018-10-11T06:29:16.946Z,91.1
2018-10-11T06:30:17.568Z,92.1
2018-10-11T06:31:16.274Z,92.4
2018-10-11T06:32:16.542Z,92.1
2018-10-11T06:33:16.810Z,92.0
2018-10-11T06:34:17.081Z,92.3
2018-10-11T06:35:16.360Z,92.2
2018-10-11T06:36:16.872Z,91.4
2018-10-11T06:37:17.182Z,91.3
2018-10-11T06:38:16.463Z,91.7
2018-10-11T06:39:16.739Z,91.9
2018-10-11T06:40:17.022Z,91.6
2018-10-11T06:41:17.070Z,91.8
2018-10-11T06:42:16.588Z,91.7
2018-10-11T06:43:16.947Z,91.5
2018-10-11T06:44:17.212Z,92.1
2018-10-11T06:45:16.481Z,92.2
2018-10-11T06:46:16.747Z,90.5
2018-10-11T06:47:17.014Z,91.2
2018-10-11T06:48:16.289Z,91.4
2018-10-11T06:49:16.571Z,91.8
2018-10-11T06:50:16.936Z,92.0
2018-10-11T06:51:16.880Z,91.5
2018-10-11T06:52:17.147Z,91.5
2018-10-11T06:53:16.438Z,91.6
2018-10-11T06:54:16.711Z,90.9
2018-10-11T06:55:16.985Z,90.3
2018-10-11T06:56:17.263Z,90.3
2018-10-11T06:57:16.532Z,90.7
2018-10-11T06:58:16.801Z,89.4
2018-10-11T06:59:17.081Z,90.1
2018-10-11T07:00:16.373Z,90.3
2018-10-11T07:01:16.408Z,90.0
2018-10-11T07:02:16.682Z,89.6
2018-10-11T07:03:16.955Z,90.0
2018-10-11T07:04:17.232Z,90.0
2018-10-11T07:05:16.509Z,90.4
2018-10-11T07:06:16.780Z,89.9
2018-10-11T07:07:17.214Z,90.7
2018-10-11T07:08:16.540Z,89.8
2018-10-11T07:09:16.815Z,89.4
2018-10-11T07:10:17.104Z,89.2
2018-10-11T07:11:17.165Z,88.8
2018-10-11T07:12:16.439Z,88.5
2018-10-11T07:13:16.717Z,88.6
2018-10-11T07:14:16.987Z,88.1
2018-10-11T07:15:17.282Z,88.0
2018-10-11T07:16:16.556Z,87.6
2018-10-11T07:17:16.833Z,87.9
2018-10-11T07:18:17.099Z,88.4
2018-10-11T07:19:16.468Z,88.3
2018-10-11T07:20:16.748Z,88.1
2018-10-11T07:21:16.790Z,87.5
2018-10-11T07:22:17.048Z,87.4
2018-10-11T07:23:16.330Z,87.2
2018-10-11T07:24:16.617Z,86.3
2018-10-11T07:25:16.925Z,85.3
2018-10-11T07:26:17.212Z,81.2
2018-10-11T07:27:16.485Z,79.1
2018-10-11T07:28:16.759Z,82.0
2018-10-11T07:29:17.030Z,82.9
2018-10-11T07:30:16.313Z,82.2
2018-10-11T07:31:16.361Z,78.4
2018-10-11T07:32:16.629Z,79.1
2018-10-11T07:33:16.907Z,80.3
2018-10-11T07:34:17.170Z,80.7
2018-10-11T07:35:16.767Z,75.8
2018-10-11T07:36:17.136Z,74.8
2018-10-11T07:37:16.400Z,74.2
2018-10-11T07:38:16.673Z,73.4
2018-10-11T07:39:16.942Z,74.8
2018-10-11T07:40:17.356Z,73.6
2018-10-11T07:41:16.275Z,75.3
2018-10-11T07:42:16.548Z,73.5
2018-10-11T07:43:16.830Z,75.4
2018-10-11T07:44:17.110Z,72.2
2018-10-11T07:45:16.387Z,71.3
2018-10-11T07:46:16.648Z,74.7
2018-10-11T07:47:17.199Z,72.0
2018-10-11T07:48:16.555Z,71.9
2018-10-11T07:49:16.826Z,70.4
2018-10-11T07:50:17.128Z,71.9
2018-10-11T07:51:17.134Z,70.8
2018-10-11T07:52:16.399Z,70.8
2018-10-11T07:53:16.669Z,71.8
2018-10-11T07:54:16.957Z,72.0
2018-10-11T07:55:17.223Z,69.2
2018-10-11T07:56:16.495Z,69.9
2018-10-11T07:57:16.759Z,69.3
2018-10-11T07:58:17.029Z,67.2
2018-10-11T07:59:16.300Z,67.4
2018-10-11T08:00:16.582Z,68.9
2018-10-11T08:01:16.770Z,69.3
2018-10-11T08:02:17.046Z,66.8
2018-10-11T08:03:16.327Z,66.2
2018-10-11T08:04:16.603Z,64.6
2018-10-11T08:05:16.881Z,68.7
2018-10-11T08:06:17.160Z,65.5
2018-10-11T08:07:16.697Z,66.6
2018-10-11T08:08:17.116Z,66.8
2018-10-11T08:09:16.400Z,63.8
2018-10-11T08:10:16.772Z,63.0
2018-10-11T08:11:16.988Z,65.9
2018-10-11T08:12:16.314Z,62.1
2018-10-11T08:13:16.605Z,61.3
2018-10-11T08:14:16.865Z,61.8
2018-10-11T08:15:17.150Z,62.9
2018-10-11T08:16:16.609Z,60.2
2018-10-11T08:17:17.997Z,60.2
2018-10-11T08:18:16.520Z,58.7
2018-10-11T08:19:17.678Z,58.1
2018-10-11T08:20:17.204Z,59.3
2018-10-11T08:21:17.174Z,59.0
2018-10-11T08:22:16.439Z,60.7
2018-10-11T08:23:16.713Z,56.0
2018-10-11T08:24:17.171Z,57.3
2018-10-11T08:25:17.389Z,56.3
2018-10-11T08:26:18.086Z,57.7
2018-10-11T08:27:16.773Z,56.1
2018-10-11T08:28:17.067Z,55.2
2018-10-11T08:29:16.345Z,56.4
2018-10-11T08:30:16.640Z,57.2
2018-10-11T08:31:16.715Z,57.4
2018-10-11T08:32:17.284Z,56.4
2018-10-11T08:33:16.936Z,55.1
2018-10-11T08:34:16.306Z,55.6
2018-10-11T08:35:16.570Z,55.5
2018-10-11T08:36:16.832Z,54.1
2018-10-11T08:37:17.115Z,53.8
2018-10-11T08:38:16.904Z,52.2
2018-10-11T08:39:16.393Z,53.1
2018-10-11T08:40:16.668Z,53.7
2018-10-11T08:41:16.723Z,53.2
2018-10-11T08:42:16.995Z,52.9
2018-10-11T08:43:16.296Z,52.6
2018-10-11T08:44:16.727Z,51.9
2018-10-11T08:45:17.084Z,51.3
2018-10-11T08:46:16.361Z,52.9
2018-10-11T08:47:16.629Z,52.3
2018-10-11T08:48:17.218Z,54.0
2018-10-11T08:49:16.754Z,52.6
2018-10-11T08:50:17.278Z,53.2
2018-10-11T08:51:17.118Z,56.4
2018-10-11T08:52:16.388Z,54.5
2018-10-11T08:53:16.682Z,51.7
2018-10-11T08:54:16.954Z,51.8
2018-10-11T08:55:17.334Z,50.9
2018-10-11T08:56:16.625Z,51.4
2018-10-11T08:57:16.894Z,50.2
2018-10-11T08:58:17.174Z,49.7
2018-10-11T08:59:16.595Z,49.7
2018-10-11T09:00:17.008Z,51.7
2018-10-11T09:01:17.045Z,51.6
2018-10-11T09:02:16.322Z,52.8
2018-10-11T09:03:16.703Z,55.2
2018-10-11T09:04:17.255Z,51.8
2018-10-11T09:05:16.801Z,51.8
2018-10-11T09:06:17.102Z,51.5
2018-10-11T09:07:16.366Z,50.2
2018-10-11T09:08:16.634Z,50.6
2018-10-11T09:09:16.914Z,53.0
2018-10-11T09:10:17.189Z,53.4
2018-10-11T09:11:17.344Z,52.4
2018-10-11T09:12:16.650Z,50.7
2018-10-11T09:13:16.924Z,49.8
2018-10-11T09:14:17.198Z,55.9
2018-10-11T09:15:16.486Z,55.2
2018-10-11T09:16:16.760Z,53.1
2018-10-11T09:17:17.148Z,52.0
2018-10-11T09:18:16.480Z,51.1
2018-10-11T09:19:16.757Z,50.7
2018-10-11T09:20:17.032Z,51.2
2018-10-11T09:21:17.069Z,52.2
2018-10-11T09:22:16.335Z,52.4
2018-10-11T09:23:16.843Z,51.0
2018-10-11T09:24:17.241Z,52.4
2018-10-11T09:25:16.522Z,51.6
2018-10-11T09:26:16.789Z,49.9
2018-10-11T09:27:17.059Z,49.6
2018-10-11T09:28:16.330Z,49.6
2018-10-11T09:29:16.597Z,49.3
2018-10-11T09:30:17.038Z,48.0
2018-10-11T09:31:16.925Z,49.3
2018-10-11T09:32:17.195Z,49.2
2018-10-11T09:33:16.469Z,49.2
2018-10-11T09:34:16.736Z,50.2
2018-10-11T09:35:17.005Z,49.9
2018-10-11T09:36:16.346Z,47.8
2018-10-11T09:37:16.624Z,48.5
2018-10-11T09:38:16.901Z,48.7
2018-10-11T09:39:17.176Z,48.7
2018-10-11T09:40:16.457Z,49.0
2018-10-11T09:41:16.505Z,49.8
2018-10-11T09:42:16.772Z,49.0
2018-10-11T09:43:17.442Z,48.4
2018-10-11T09:44:16.747Z,50.7
2018-10-11T09:45:17.034Z,50.4
2018-10-11T09:46:16.307Z,51.5
2018-10-11T09:47:16.574Z,49.7
2018-10-11T09:48:16.844Z,49.7
2018-10-11T09:49:17.128Z,51.3
2018-10-11T09:50:16.406Z,49.0
2018-10-11T09:51:16.475Z,49.3
2018-10-11T09:52:16.751Z,47.8
2018-10-11T09:53:17.022Z,47.9
2018-10-11T09:54:16.391Z,52.6
2018-10-11T09:55:16.693Z,48.9
2018-10-11T09:56:16.972Z,47.5
2018-10-11T09:57:17.236Z,49.7
2018-10-11T09:58:16.508Z,49.1
2018-10-11T09:59:16.787Z,48.6
2018-10-11T10:00:17.059Z,48.8
2018-10-11T10:01:17.116Z,49.4
2018-10-11T10:02:16.387Z,46.9
2018-10-11T10:03:16.650Z,46.4
2018-10-11T10:04:16.922Z,46.5
2018-10-11T10:05:17.199Z,46.8
2018-10-11T10:06:16.464Z,47.4
2018-10-11T10:07:16.727Z,45.8
2018-10-11T10:08:17.004Z,46.0
2018-10-11T10:09:16.261Z,46.1
2018-10-11T10:10:16.543Z,46.9
2018-10-11T10:11:16.597Z,46.0
2018-10-11T10:12:16.870Z,46.0
2018-10-11T10:13:17.143Z,46.6
2018-10-11T10:14:16.416Z,46.1
2018-10-11T10:15:16.710Z,45.5
2018-10-11T10:16:16.982Z,46.0
2018-10-11T10:17:17.255Z,48.6
2018-10-11T10:18:16.531Z,46.8
2018-10-11T10:19:16.795Z,46.7
2018-10-11T10:20:17.073Z,46.7
2018-10-11T10:21:17.432Z,46.5
2018-10-11T10:22:16.853Z,45.9
2018-10-11T10:23:17.121Z,48.5
2018-10-11T10:24:16.396Z,48.5
2018-10-11T10:25:16.714Z,47.8
2018-10-11T10:26:16.978Z,47.5
2018-10-11T10:27:17.581Z,47.2
2018-10-11T10:28:16.930Z,46.7
2018-10-11T10:29:17.225Z,46.1
2018-10-11T10:30:16.502Z,46.0
2018-10-11T10:31:16.569Z,46.0
2018-10-11T10:32:16.844Z,46.7
2018-10-11T10:33:17.119Z,45.7
2018-10-11T10:34:16.395Z,45.3
2018-10-11T10:35:16.671Z,45.9
2018-10-11T10:36:16.936Z,44.9
2018-10-11T10:37:17.196Z,43.2
2018-10-11T10:38:16.471Z,44.4
2018-10-11T10:39:16.740Z,44.3
2018-10-11T10:40:17.018Z,44.0
2018-10-11T10:41:17.067Z,43.6
2018-10-11T10:42:16.341Z,45.0
2018-10-11T10:43:16.616Z,45.0
2018-10-11T10:44:16.940Z,45.2
2018-10-11T10:45:17.232Z,44.8
2018-10-11T10:46:16.508Z,43.9
2018-10-11T10:47:16.781Z,42.5
2018-10-11T10:48:17.057Z,43.0
2018-10-11T10:49:16.326Z,42.1
2018-10-11T10:50:16.605Z,43.3
2018-10-11T10:51:16.636Z,42.2
2018-10-11T10:52:16.899Z,42.2
2018-10-11T10:53:17.165Z,41.1
2018-10-11T10:54:16.503Z,40.9
2018-10-11T10:55:16.795Z,42.2
2018-10-11T10:56:17.062Z,42.2
2018-10-11T10:57:16.326Z,42.9
2018-10-11T10:58:16.590Z,43.4
2018-10-11T10:59:16.864Z,43.1
2018-10-11T11:00:17.146Z,43.5
2018-10-11T11:01:17.183Z,42.7
2018-10-11T11:02:16.458Z,43.8
2018-10-11T11:03:16.732Z,43.1
2018-10-11T11:04:16.999Z,42.8
2018-10-11T11:05:16.274Z,42.8
2018-10-11T11:06:16.547Z,42.8
2018-10-11T11:07:16.927Z,43.2
2018-10-11T11:08:16.259Z,42.4
2018-10-11T11:09:16.538Z,43.1
2018-10-11T11:10:16.828Z,43.1
2018-10-11T11:11:16.862Z,44.4
2018-10-11T11:12:17.128Z,44.1
2018-10-11T11:13:16.611Z,43.4
2018-10-11T11:14:16.961Z,41.1
2018-10-11T11:15:17.254Z,41.3
2018-10-11T11:16:16.549Z,41.3
2018-10-11T11:17:16.816Z,40.5
2018-10-11T11:18:17.098Z,40.9
2018-10-11T11:19:16.364Z,40.5
2018-10-11T11:20:16.644Z,42.4
2018-10-11T11:21:16.681Z,42.5
2018-10-11T11:22:16.956Z,42.5
2018-10-11T11:23:17.226Z,41.0
2018-10-11T11:24:16.501Z,41.5
2018-10-11T11:25:16.977Z,42.1
2018-10-11T11:26:16.334Z,41.3
2018-10-11T11:27:16.603Z,41.3
2018-10-11T11:28:16.867Z,43.2
2018-10-11T11:29:17.144Z,42.4
2018-10-11T11:30:16.434Z,41.5
2018-10-11T11:31:16.478Z,42.6
2018-10-11T11:32:16.745Z,42.7
2018-10-11T11:33:17.030Z,43.1
2018-10-11T11:34:16.308Z,42.5
2018-10-11T11:35:16.577Z,42.2
2018-10-11T11:36:16.849Z,42.6
2018-10-11T11:37:17.125Z,40.2
2018-10-11T11:38:16.397Z,41.7
2018-10-11T11:39:16.671Z,42.4
2018-10-11T11:40:16.961Z,41.6
2018-10-11T11:41:16.982Z,42.2
2018-10-11T11:42:17.249Z,43.1
2018-10-11T11:43:16.529Z,41.8
2018-10-11T11:44:16.797Z,42.7
2018-10-11T11:45:17.074Z,42.4
2018-10-11T11:46:16.341Z,42.4
2018-10-11T11:47:16.605Z,45.5
2018-10-11T11:48:16.877Z,42.8
2018-10-11T11:49:17.154Z,43.8
2018-10-11T11:50:16.430Z,43.1
2018-10-11T11:51:16.495Z,41.3
2018-10-11T11:52:16.763Z,41.5
2018-10-11T11:53:17.272Z,42.2
2018-10-11T11:54:16.613Z,42.0
2018-10-11T11:55:16.905Z,43.7
2018-10-11T11:56:17.165Z,44.5
2018-10-11T11:57:16.441Z,42.1
2018-10-11T11:58:16.710Z,45.2
2018-10-11T11:59:17.151Z,39.8
2018-10-11T12:00:16.445Z,40.6
2018-10-11T12:01:16.505Z,40.8
2018-10-11T12:02:17.090Z,40.5
2018-10-11T12:03:16.414Z,39.4
2018-10-11T12:04:16.681Z,40.0
2018-10-11T12:05:17.271Z,38.8
2018-10-11T12:06:16.551Z,39.5
2018-10-11T12:07:16.829Z,39.1
2018-10-11T12:08:17.112Z,40.8
2018-10-11T12:09:16.395Z,40.6
2018-10-11T12:10:16.731Z,40.8
2018-10-11T12:11:16.734Z,40.4
2018-10-11T12:12:16.994Z,38.0
2018-10-11T12:13:16.262Z,38.9
2018-10-11T12:14:16.548Z,38.9
2018-10-11T12:15:16.820Z,39.7
2018-10-11T12:16:17.099Z,38.9
2018-10-11T12:17:16.371Z,39.7
2018-10-11T12:18:16.639Z,40.0
2018-10-11T12:19:16.912Z,39.4
2018-10-11T12:20:17.217Z,39.4
2018-10-11T12:21:17.240Z,41.5
2018-10-11T12:22:16.512Z,39.4
2018-10-11T12:23:16.780Z,41.1
2018-10-11T12:24:17.054Z,40.8
2018-10-11T12:25:16.334Z,40.6
2018-10-11T12:26:16.701Z,41.4
2018-10-11T12:27:16.986Z,41.4
2018-10-11T12:28:17.321Z,40.2
2018-10-11T12:29:16.601Z,40.7
2018-10-11T12:30:16.891Z,41.2
2018-10-11T12:31:16.924Z,40.4
2018-10-11T12:32:17.198Z,40.5
2018-10-11T12:33:16.460Z,41.1
2018-10-11T12:34:16.731Z,38.6
2018-10-11T12:35:16.998Z,38.6
2018-10-11T12:36:16.332Z,38.6
2018-10-11T12:37:16.611Z,38.4
2018-10-11T12:38:16.878Z,39.4
2018-10-11T12:39:17.151Z,39.4
2018-10-11T12:40:16.438Z,38.1
2018-10-11T12:41:16.493Z,40.2
2018-10-11T12:42:16.819Z,39.7
2018-10-11T12:43:17.093Z,39.7
2018-10-11T12:44:16.371Z,40.5
2018-10-11T12:45:16.785Z,40.2
2018-10-11T12:46:17.129Z,40.2
2018-10-11T12:47:16.407Z,40.6
2018-10-11T12:48:16.693Z,39.9
2018-10-11T12:49:17.065Z,41.6
2018-10-11T12:50:16.455Z,40.6
2018-10-11T12:51:16.498Z,41.2
2018-10-11T12:52:16.967Z,40.9
2018-10-11T12:53:17.225Z,42.4
2018-10-11T12:54:16.505Z,43.0
2018-10-11T12:55:16.780Z,41.4
2018-10-11T12:56:17.246Z,42.0
2018-10-11T12:57:21.177Z,42.0
2018-10-11T12:58:16.597Z,39.0
2018-10-11T12:59:16.875Z,40.1
2018-10-11T13:00:17.165Z,40.6
2018-10-11T13:01:23.632Z,39.8
2018-10-11T13:02:16.459Z,38.2
2018-10-11T13:03:16.861Z,38.7
2018-10-11T13:04:17.210Z,37.5
2018-10-11T13:05:16.483Z,37.2
2018-10-11T13:06:16.748Z,38.2
2018-10-11T13:07:17.021Z,38.9
2018-10-11T13:08:16.296Z,38.4
2018-10-11T13:09:16.697Z,39.2
2018-10-11T13:10:16.977Z,39.3
2018-10-11T13:11:17.018Z,38.8
2018-10-11T13:12:16.292Z,39.7
2018-10-11T13:13:16.567Z,39.3
2018-10-11T13:14:16.835Z,39.5
2018-10-11T13:15:17.118Z,39.1
2018-10-11T13:16:16.405Z,39.1
2018-10-11T13:17:16.665Z,41.5
2018-10-11T13:18:16.948Z,41.8